createdAt,value
2018-11-11T00:00:13.398Z,7.50
2018-11-11T00:02:41.532Z,8.40
2018-11-11T00:05:10.465Z,7.27
2018-11-11T00:07:38.628Z,7.90
2018-11-11T00:10:06.916Z,8.70
2018-11-11T00:12:35.086Z,6.87
2018-11-11T00:15:03.369Z,7.40
2018-11-11T00:17:31.496Z,7.87
2018-11-11T00:19:59.712Z,7.87
2018-11-11T00:22:27.864Z,8.23
2018-11-11T00:24:56.018Z,7.40
2018-11-11T00:27:24.268Z,7.90
2018-11-11T00:29:52.407Z,7.73
2018-11-11T00:32:21.424Z,6.67
2018-11-11T00:34:49.560Z,7.10
2018-11-11T00:37:17.767Z,7.30
2018-11-11T00:39:46.002Z,7.40
2018-11-11T00:42:14.086Z,7.23
2018-11-11T00:44:42.237Z,6.57
2018-11-11T00:47:10.469Z,7.17
2018-11-11T00:49:38.645Z,6.67
2018-11-11T00:52:07.293Z,6.70
2018-11-11T00:54:35.490Z,7.43
2018-11-11T00:57:03.638Z,6.63
2018-11-11T00:59:31.771Z,6.43
2018-11-11T01:01:59.909Z,6.57
2018-11-11T01:04:28.101Z,6.40
2018-11-11T01:06:56.278Z,6.30
2018-11-11T01:09:24.464Z,6.53
2018-11-11T01:11:52.620Z,6.10
2018-11-11T01:14:20.823Z,6.73
2018-11-11T01:16:49.106Z,6.17
2018-11-11T01:19:17.791Z,6.70
2018-11-11T01:21:45.937Z,6.10
2018-11-11T01:24:14.073Z,5.70
2018-11-11T01:26:42.223Z,6.70
2018-11-11T01:29:10.339Z,5.40
2018-11-11T01:31:38.476Z,5.90
2018-11-11T01:34:06.633Z,5.90
2018-11-11T01:36:34.750Z,5.43
2018-11-11T01:39:03.064Z,5.83
2018-11-11T01:41:31.169Z,5.67
2018-11-11T01:43:59.282Z,6.10
2018-11-11T01:46:27.389Z,4.93
2018-11-11T01:48:56.300Z,4.90
2018-11-11T01:51:24.403Z,5.40
2018-11-11T01:53:52.532Z,5.13
2018-11-11T01:56:20.653Z,5.77
2018-11-11T01:58:48.824Z,4.53
2018-11-11T02:01:16.971Z,5.40
2018-11-11T02:03:45.174Z,5.60
2018-11-11T02:06:13.304Z,5.30
2018-11-11T02:08:41.476Z,5.10
2018-11-11T02:11:09.582Z,5.50
2018-11-11T02:13:37.702Z,5.57
2018-11-11T02:16:06.342Z,5.40
2018-11-11T02:18:34.888Z,5.70
2018-11-11T02:21:03.074Z,4.77
2018-11-11T02:23:31.205Z,4.93
2018-11-11T02:25:59.465Z,5.57
2018-11-11T02:28:27.580Z,4.50
2018-11-11T02:30:55.698Z,4.43
2018-11-11T02:33:23.804Z,4.57
2018-11-11T02:35:51.819Z,5.20
2018-11-11T02:38:19.862Z,5.30
2018-11-11T02:40:47.931Z,5.10
2018-11-11T02:43:16.044Z,5.53
2018-11-11T02:45:44.162Z,4.43
2018-11-11T02:48:12.274Z,4.50
2018-11-11T02:50:40.461Z,4.90
2018-11-11T02:53:08.682Z,6.78
2018-11-11T02:55:36.897Z,4.25
2018-11-11T02:58:05.111Z,4.70
2018-11-11T03:00:33.217Z,5.60
2018-11-11T03:03:01.322Z,4.50
2018-11-11T03:05:29.399Z,4.37
2018-11-11T03:07:57.480Z,4.93
2018-11-11T03:10:25.563Z,4.70
2018-11-11T03:12:53.672Z,4.40
2018-11-11T03:15:21.738Z,4.03
2018-11-11T03:17:49.893Z,4.77
2018-11-11T03:20:18.344Z,4.10
2018-11-11T03:22:46.419Z,3.87
2018-11-11T03:25:15.457Z,4.30
2018-11-11T03:27:43.679Z,4.07
2018-11-11T03:30:13.121Z,4.70
2018-11-11T03:32:41.359Z,4.23
2018-11-11T03:35:10.482Z,4.55
2018-11-11T03:37:38.567Z,3.80
2018-11-11T03:40:09.087Z,4.17
2018-11-11T03:42:37.144Z,4.70
2018-11-11T03:45:05.677Z,4.43
2018-11-11T03:47:33.826Z,3.97
2018-11-11T03:50:01.928Z,4.10
2018-11-11T03:52:30.004Z,3.83
2018-11-11T03:54:58.062Z,3.97
2018-11-11T03:57:26.450Z,3.70
2018-11-11T03:59:54.491Z,3.77
2018-11-11T04:02:22.591Z,3.70
2018-11-11T04:04:50.761Z,4.30
2018-11-11T04:07:18.809Z,3.90
2018-11-11T04:09:46.883Z,4.83
2018-11-11T04:12:14.985Z,3.57
2018-11-11T04:14:43.055Z,4.07
2018-11-11T04:17:11.144Z,4.25
2018-11-11T04:19:39.261Z,3.97
2018-11-11T04:22:15.420Z,4.33
2018-11-11T04:24:43.471Z,3.70
2018-11-11T04:27:11.687Z,3.77
2018-11-11T04:29:39.734Z,3.53
2018-11-11T04:32:08.082Z,3.87
2018-11-11T04:34:37.100Z,4.00
2018-11-11T04:37:05.407Z,3.80
2018-11-11T04:39:33.480Z,3.50
2018-11-11T04:42:01.583Z,4.70
2018-11-11T04:44:29.668Z,3.67
2018-11-11T04:46:57.759Z,3.80
2018-11-11T04:49:25.881Z,3.87
2018-11-11T04:51:54.024Z,3.20
2018-11-11T04:54:22.071Z,3.10
2018-11-11T04:56:50.201Z,2.57
2018-11-11T04:59:18.356Z,3.67
2018-11-11T05:01:46.432Z,3.53
2018-11-11T05:04:15.053Z,3.25
2018-11-11T05:06:43.090Z,3.37
2018-11-11T05:09:12.723Z,3.67
2018-11-11T05:11:41.097Z,2.90
2018-11-11T05:14:10.277Z,3.80
2018-11-11T05:16:38.431Z,3.40
2018-11-11T05:19:07.435Z,3.40
2018-11-11T05:21:35.509Z,3.30
2018-11-11T05:24:03.919Z,3.43
2018-11-11T05:26:31.956Z,3.10
2018-11-11T05:29:00.036Z,2.87
2018-11-11T05:31:28.102Z,3.42
2018-11-11T05:33:56.218Z,3.20
2018-11-11T05:36:24.261Z,3.00
2018-11-11T05:38:52.364Z,3.50
2018-11-11T05:41:20.456Z,3.07
2018-11-11T05:43:48.527Z,3.40
2018-11-11T05:46:16.594Z,3.07
2018-11-11T05:48:44.769Z,3.50
2018-11-11T05:51:12.921Z,3.20
2018-11-11T05:53:40.992Z,3.83
2018-11-11T05:56:09.064Z,2.90
2018-11-11T05:58:37.137Z,3.00
2018-11-11T06:01:05.588Z,3.47
2018-11-11T06:03:33.946Z,3.17
2018-11-11T06:06:02.037Z,3.07
2018-11-11T06:08:30.165Z,3.20
2018-11-11T06:10:58.296Z,3.70
2018-11-11T06:13:26.395Z,3.47
2018-11-11T06:15:54.493Z,3.10
2018-11-11T06:18:22.721Z,3.60
2018-11-11T06:20:50.839Z,2.85
2018-11-11T06:23:18.963Z,4.33
2018-11-11T06:25:47.056Z,3.03
2018-11-11T06:28:15.479Z,3.00
2018-11-11T06:30:43.630Z,2.97
2018-11-11T06:33:11.729Z,3.60
2018-11-11T06:35:39.843Z,3.50
2018-11-11T06:38:07.915Z,3.67
2018-11-11T06:40:35.996Z,3.37
2018-11-11T06:43:04.372Z,3.17
2018-11-11T06:45:32.480Z,3.37
2018-11-11T06:48:00.666Z,2.80
2018-11-11T06:50:28.787Z,2.80
2018-11-11T06:52:56.859Z,3.25
2018-11-11T06:55:24.957Z,3.17
2018-11-11T06:57:53.064Z,2.87
2018-11-11T07:00:21.187Z,3.10
2018-11-11T07:03:00.704Z,2.77
2018-11-11T07:05:28.841Z,3.50
2018-11-11T07:07:56.999Z,2.47
2018-11-11T07:10:25.051Z,2.63
2018-11-11T07:12:53.109Z,2.60
2018-11-11T07:15:21.231Z,2.80
2018-11-11T07:17:49.354Z,3.47
2018-11-11T07:20:17.411Z,2.90
2018-11-11T07:22:45.491Z,2.60
2018-11-11T07:25:13.698Z,2.47
2018-11-11T07:27:41.906Z,2.53
2018-11-11T07:30:10.032Z,2.30
2018-11-11T07:32:38.204Z,2.40
2018-11-11T07:35:07.544Z,3.27
2018-11-11T07:37:35.599Z,2.73
2018-11-11T07:40:03.655Z,2.40
2018-11-11T07:42:31.870Z,2.23
2018-11-11T07:44:59.892Z,2.13
2018-11-11T07:47:27.960Z,2.90
2018-11-11T07:49:56.118Z,2.20
2018-11-11T07:52:24.162Z,2.47
2018-11-11T07:54:52.293Z,2.63
2018-11-11T07:57:20.444Z,2.43
2018-11-11T07:59:48.564Z,2.20
2018-11-11T08:02:17.256Z,2.13
2018-11-11T08:04:45.395Z,2.00
2018-11-11T08:07:13.452Z,2.73
2018-11-11T08:09:41.623Z,2.00
2018-11-11T08:12:09.791Z,2.00
2018-11-11T08:14:37.866Z,2.33
2018-11-11T08:17:05.927Z,1.67
2018-11-11T08:19:34.021Z,1.93
2018-11-11T08:22:02.083Z,1.50
2018-11-11T08:24:30.320Z,1.80
2018-11-11T08:26:58.502Z,1.83
2018-11-11T08:29:26.580Z,1.70
2018-11-11T08:31:54.624Z,1.70
2018-11-11T08:34:23.732Z,1.77
2018-11-11T08:36:51.832Z,2.30
2018-11-11T08:39:19.866Z,2.13
2018-11-11T08:41:48.356Z,2.80
2018-11-11T08:44:16.455Z,1.87
2018-11-11T08:46:45.536Z,2.30
2018-11-11T08:49:14.089Z,1.50
2018-11-11T08:51:42.223Z,1.60
2018-11-11T08:54:10.267Z,1.40
2018-11-11T08:56:38.361Z,1.63
2018-11-11T08:59:06.467Z,1.73
2018-11-11T09:01:34.538Z,1.67
2018-11-11T09:04:02.673Z,2.10
2018-11-11T09:06:30.755Z,1.90
2018-11-11T09:08:58.812Z,1.63
2018-11-11T09:11:26.900Z,1.73
2018-11-11T09:13:55.061Z,2.17
2018-11-11T09:16:23.108Z,1.50
2018-11-11T09:18:51.210Z,1.70
2018-11-11T09:21:19.328Z,1.50
2018-11-11T09:23:47.506Z,1.50
2018-11-11T09:26:15.685Z,2.50
2018-11-11T09:28:43.780Z,2.00
2018-11-11T09:31:11.899Z,1.57
2018-11-11T09:33:40.249Z,2.27
2018-11-11T09:36:09.129Z,2.27
2018-11-11T09:38:37.197Z,2.37
2018-11-11T09:41:05.788Z,2.30
2018-11-11T09:43:33.967Z,1.60
2018-11-11T09:46:02.156Z,2.80
2018-11-11T09:48:30.296Z,1.80
2018-11-11T09:50:58.380Z,1.30
2018-11-11T09:53:26.779Z,2.07
2018-11-11T09:55:54.909Z,1.90
2018-11-11T09:58:22.991Z,1.90
2018-11-11T10:00:51.038Z,1.23
2018-11-11T10:04:22.090Z,2.70
2018-11-11T10:07:03.452Z,1.90
2018-11-11T10:09:43.422Z,1.90
2018-11-11T10:12:19.819Z,2.52
2018-11-11T10:16:57.503Z,1.80
2018-11-11T10:19:34.663Z,2.30
2018-11-11T10:22:08.055Z,2.10
2018-11-11T10:24:42.876Z,1.90
2018-11-11T10:27:18.994Z,1.60
2018-11-11T10:29:56.688Z,1.63
2018-11-11T10:32:40.363Z,2.03
2018-11-11T10:35:28.749Z,1.60
2018-11-11T10:38:00.604Z,1.60
2018-11-11T10:41:01.314Z,1.57
2018-11-11T10:43:36.052Z,1.83
2018-11-11T10:46:09.367Z,1.70
2018-11-11T10:48:40.923Z,1.57
2018-11-11T10:51:09.160Z,1.47
2018-11-11T10:53:37.281Z,1.90
2018-11-11T10:56:05.488Z,1.67
2018-11-11T10:58:33.579Z,1.23
2018-11-11T11:01:07.444Z,1.60
2018-11-11T11:03:36.872Z,1.93
2018-11-11T11:06:05.357Z,1.80
2018-11-11T11:08:33.458Z,2.60
2018-11-11T11:11:01.658Z,1.60
2018-11-11T11:13:30.477Z,4.67
2018-11-11T11:15:59.178Z,5.50
2018-11-11T11:18:27.470Z,7.83
2018-11-11T11:20:55.873Z,4.00
2018-11-11T11:23:23.995Z,3.33
2018-11-11T11:25:52.313Z,3.67
2018-11-11T11:28:20.342Z,3.50
2018-11-11T11:30:48.443Z,2.80
2018-11-11T11:33:16.687Z,3.43
2018-11-11T11:35:44.961Z,2.77
2018-11-11T11:38:13.168Z,2.53
2018-11-11T11:40:41.303Z,2.33
2018-11-11T11:43:09.474Z,3.60
2018-11-11T11:45:37.610Z,2.20
2018-11-11T11:48:05.788Z,3.00
2018-11-11T11:50:33.997Z,2.13
2018-11-11T11:53:02.135Z,2.40
2018-11-11T11:55:30.166Z,2.10
2018-11-11T11:58:25.972Z,2.13
2018-11-11T12:00:54.197Z,2.00
2018-11-11T12:03:22.463Z,2.77
2018-11-11T12:05:50.755Z,2.47
2018-11-11T12:08:19.131Z,2.50
2018-11-11T12:10:47.351Z,1.83
2018-11-11T12:13:16.127Z,2.70
2018-11-11T12:15:44.536Z,3.57
2018-11-11T12:18:12.767Z,2.35
2018-11-11T12:20:41.294Z,2.23
2018-11-11T12:23:09.825Z,3.33
2018-11-11T12:25:38.537Z,1.73
2018-11-11T12:28:07.966Z,1.87
2018-11-11T12:30:36.171Z,2.17
2018-11-11T12:33:04.257Z,2.03
2018-11-11T12:35:32.328Z,2.03
2018-11-11T12:38:00.923Z,4.73
2018-11-11T12:40:29.013Z,28.47
2018-11-11T12:42:57.342Z,8.83
2018-11-11T12:45:25.470Z,10.77
2018-11-11T12:47:53.648Z,6.20
2018-11-11T12:50:21.961Z,10.40
2018-11-11T12:52:49.971Z,13.87
2018-11-11T12:55:18.211Z,10.88
2018-11-11T12:57:46.320Z,7.00
2018-11-11T13:00:15.161Z,6.80
2018-11-11T13:02:43.265Z,5.53
2018-11-11T13:05:11.675Z,6.50
2018-11-11T13:07:39.808Z,5.23
2018-11-11T13:10:09.955Z,5.30
2018-11-11T13:12:38.190Z,5.10
2018-11-11T13:15:07.407Z,4.30
2018-11-11T13:17:35.512Z,4.60
2018-11-11T13:20:04.153Z,4.27
2018-11-11T13:22:32.362Z,4.40
2018-11-11T13:25:00.459Z,4.30
2018-11-11T13:27:29.088Z,4.73
2018-11-11T13:29:57.186Z,4.42
2018-11-11T13:32:25.290Z,4.63
2018-11-11T13:34:53.331Z,5.30
2018-11-11T13:37:21.519Z,5.33
2018-11-11T13:39:49.765Z,4.73
2018-11-11T13:42:17.889Z,4.43
2018-11-11T13:44:45.926Z,5.30
2018-11-11T13:47:13.988Z,4.70
2018-11-11T13:49:42.084Z,4.00
2018-11-11T13:52:10.193Z,4.30
2018-11-11T13:54:38.335Z,4.20
2018-11-11T13:57:07.204Z,4.73
2018-11-11T13:59:35.255Z,3.80
2018-11-11T14:02:03.406Z,3.80
2018-11-11T14:04:31.601Z,3.83
2018-11-11T14:06:59.670Z,4.27
2018-11-11T14:09:27.803Z,4.07
2018-11-11T14:11:55.971Z,4.20
2018-11-11T14:14:24.007Z,4.07
2018-11-11T14:16:52.085Z,4.40
2018-11-11T14:19:20.449Z,4.30
2018-11-11T14:21:48.337Z,3.50
2018-11-11T14:24:16.464Z,3.67
2018-11-11T14:26:44.770Z,3.80
2018-11-11T14:29:12.645Z,3.10
2018-11-11T14:31:40.697Z,3.23
2018-11-11T14:34:08.840Z,3.77
2018-11-11T14:36:37.075Z,3.40
2018-11-11T14:39:09.009Z,3.40
2018-11-11T14:41:37.121Z,4.33
2018-11-11T14:44:05.519Z,4.40
2018-11-11T14:46:33.596Z,4.33
2018-11-11T14:49:01.730Z,3.37
2018-11-11T14:51:29.811Z,3.23
2018-11-11T14:53:57.896Z,3.90
2018-11-11T14:56:26.031Z,3.70
2018-11-11T14:58:54.277Z,3.13
2018-11-11T15:01:22.205Z,3.00
2018-11-11T15:03:50.391Z,3.33
2018-11-11T15:06:18.540Z,2.80
2018-11-11T15:08:47.253Z,3.58
2018-11-11T15:11:17.195Z,3.67
2018-11-11T15:13:45.323Z,3.50
2018-11-11T15:16:13.382Z,3.00
2018-11-11T15:18:41.544Z,3.10
2018-11-11T15:21:09.734Z,3.00
2018-11-11T15:23:37.716Z,3.30
2018-11-11T15:26:05.946Z,4.27
2018-11-11T15:28:34.024Z,3.13
2018-11-11T15:31:02.201Z,3.60
2018-11-11T15:33:30.191Z,3.63
2018-11-11T15:35:58.304Z,3.62
2018-11-11T15:38:26.426Z,3.17
2018-11-11T15:40:54.511Z,3.07
2018-11-11T15:43:22.563Z,3.80
2018-11-11T15:45:50.621Z,3.40
2018-11-11T15:48:19.543Z,3.17
2018-11-11T15:50:47.611Z,2.90
2018-11-11T15:53:15.704Z,3.77
2018-11-11T15:55:43.780Z,3.27
2018-11-11T15:58:11.983Z,3.10
2018-11-11T16:00:41.737Z,3.70
2018-11-11T16:03:09.819Z,3.40
2018-11-11T16:05:37.963Z,2.90
2018-11-11T16:08:06.052Z,3.22
2018-11-11T16:10:34.576Z,3.72
2018-11-11T16:13:02.711Z,2.57
2018-11-11T16:15:33.457Z,2.80
2018-11-11T16:18:03.092Z,2.63
2018-11-11T16:20:31.655Z,2.60
2018-11-11T16:23:00.632Z,2.65
2018-11-11T16:25:28.997Z,3.23
2018-11-11T16:27:57.095Z,2.37
2018-11-11T16:30:26.764Z,2.20
2018-11-11T16:32:55.655Z,2.97
2018-11-11T16:35:24.794Z,2.70
2018-11-11T16:37:52.956Z,2.63
2018-11-11T16:40:22.561Z,3.03
2018-11-11T16:42:51.168Z,2.50
2018-11-11T16:45:21.508Z,2.23
2018-11-11T16:47:49.749Z,2.43
2018-11-11T16:50:21.148Z,2.80
2018-11-11T16:52:50.052Z,2.60
2018-11-11T16:55:19.524Z,3.10
2018-11-11T16:57:47.621Z,2.33
2018-11-11T17:00:17.828Z,2.67
2018-11-11T17:02:46.503Z,2.37
2018-11-11T17:05:15.991Z,2.70
2018-11-11T17:07:44.387Z,2.10
2018-11-11T17:10:15.007Z,2.10
2018-11-11T17:12:44.005Z,2.60
2018-11-11T17:15:14.350Z,2.80
2018-11-11T17:17:42.507Z,2.35
2018-11-11T17:20:13.035Z,2.63
2018-11-11T17:22:41.318Z,2.52
2018-11-11T17:25:10.792Z,2.33
2018-11-11T17:27:38.903Z,2.77
2018-11-11T17:30:14.695Z,2.90
2018-11-11T17:32:43.484Z,2.60
2018-11-11T17:35:11.714Z,3.13
2018-11-11T17:37:40.103Z,2.80
2018-11-11T17:40:11.577Z,2.70
2018-11-11T17:42:40.823Z,2.50
2018-11-11T17:45:09.401Z,3.23
2018-11-11T17:47:37.624Z,2.90
2018-11-11T17:50:08.449Z,2.13
2018-11-11T17:52:36.586Z,2.47
2018-11-11T17:55:04.691Z,2.40
2018-11-11T17:57:32.810Z,2.30
2018-11-11T18:00:00.950Z,3.00
2018-11-11T18:02:29.381Z,2.70
2018-11-11T18:04:57.432Z,2.30
2018-11-11T18:07:25.603Z,2.20
2018-11-11T18:09:53.775Z,2.80
2018-11-11T18:12:22.903Z,2.90
2018-11-11T18:14:51.352Z,3.20
2018-11-11T18:17:19.595Z,4.20
2018-11-11T18:19:47.793Z,3.30
2018-11-11T18:22:16.149Z,3.10
2018-11-11T18:24:44.342Z,3.27
2018-11-11T18:27:12.609Z,3.58
2018-11-11T18:29:40.749Z,3.90
2018-11-11T18:32:09.676Z,3.73
2018-11-11T18:34:37.993Z,3.27
2018-11-11T18:37:06.117Z,2.50
2018-11-11T18:39:34.318Z,2.67
2018-11-11T18:42:02.643Z,3.43
2018-11-11T18:44:30.806Z,2.97
2018-11-11T18:46:59.188Z,1.97
2018-11-11T18:49:27.499Z,3.00
2018-11-11T18:51:55.802Z,3.53
2018-11-11T18:54:24.029Z,2.70
2018-11-11T18:56:52.260Z,3.10
2018-11-11T18:59:20.556Z,2.87
2018-11-11T19:01:48.783Z,3.30
2018-11-11T19:04:17.037Z,3.60
2018-11-11T19:06:45.350Z,3.10
2018-11-11T19:09:16.316Z,3.60
2018-11-11T19:11:44.830Z,2.83
2018-11-11T19:14:12.976Z,3.37
2018-11-11T19:16:40.999Z,3.30
2018-11-11T19:19:09.055Z,2.50
2018-11-11T19:21:37.185Z,2.30
2018-11-11T19:24:06.270Z,3.20
2018-11-11T19:26:34.564Z,2.30
2018-11-11T19:29:02.679Z,2.97
2018-11-11T19:31:30.968Z,2.50
2018-11-11T19:33:59.091Z,2.90
2018-11-11T19:36:27.217Z,2.40
2018-11-11T19:38:55.337Z,2.90
2018-11-11T19:41:23.499Z,2.97
2018-11-11T19:46:17.987Z,2.27
2018-11-11T19:48:45.983Z,2.30
2018-11-11T19:51:14.023Z,2.30
2018-11-11T19:53:42.122Z,2.43
2018-11-11T19:56:10.298Z,2.60
2018-11-11T19:58:38.406Z,3.07
2018-11-11T20:01:06.632Z,2.67
2018-11-11T20:03:34.710Z,3.23
2018-11-11T20:06:02.891Z,2.90
2018-11-11T20:08:30.886Z,3.20
2018-11-11T20:10:59.040Z,2.40
2018-11-11T20:13:27.172Z,3.73
2018-11-11T20:15:55.356Z,3.07
2018-11-11T20:18:23.518Z,2.83
2018-11-11T20:20:51.655Z,2.00
2018-11-11T20:23:19.788Z,4.13
2018-11-11T20:25:47.939Z,3.12
2018-11-11T20:28:16.203Z,2.13
2018-11-11T20:30:44.271Z,2.80
2018-11-11T20:33:12.474Z,4.00
2018-11-11T20:35:40.633Z,2.73
2018-11-11T20:38:08.808Z,2.30
2018-11-11T20:40:36.996Z,2.23
2018-11-11T20:43:05.309Z,3.10
2018-11-11T20:45:34.221Z,3.30
2018-11-11T20:48:02.298Z,2.70
2018-11-11T20:50:31.671Z,2.95
2018-11-11T20:53:03.058Z,3.00
2018-11-11T20:55:31.265Z,2.07
2018-11-11T20:57:59.447Z,2.93
2018-11-11T21:00:31.007Z,2.40
2018-11-11T21:02:59.198Z,2.60
2018-11-11T21:05:28.053Z,4.60
2018-11-11T21:07:56.407Z,3.08
2018-11-11T21:10:25.803Z,2.17
2018-11-11T21:12:54.019Z,2.57
2018-11-11T21:15:23.554Z,3.45
2018-11-11T21:17:51.787Z,2.70
2018-11-11T21:20:24.315Z,2.10
2018-11-11T21:22:52.386Z,2.70
2018-11-11T21:25:20.699Z,2.60
2018-11-11T21:27:49.652Z,2.77
2018-11-11T21:30:20.031Z,2.97
2018-11-11T21:32:48.447Z,2.70
2018-11-11T21:35:16.826Z,2.93
2018-11-11T21:37:45.141Z,3.37
2018-11-11T21:40:16.879Z,2.90
2018-11-11T21:42:45.896Z,2.87
2018-11-11T21:45:15.234Z,2.77
2018-11-11T21:47:43.753Z,3.17
2018-11-11T21:50:13.256Z,2.60
2018-11-11T21:52:42.103Z,3.10
2018-11-11T21:55:10.395Z,2.70
2018-11-11T21:57:38.479Z,2.80
2018-11-11T22:00:09.026Z,2.30
2018-11-11T22:02:37.156Z,2.60
2018-11-11T22:05:06.690Z,2.47
2018-11-11T22:07:34.759Z,2.53
2018-11-11T22:10:02.951Z,3.17
2018-11-11T22:12:30.963Z,2.62
2018-11-11T22:14:59.003Z,2.77
2018-11-11T22:17:27.040Z,3.07
2018-11-11T22:19:55.137Z,2.90
2018-11-11T22:22:23.320Z,2.90
2018-11-11T22:24:51.264Z,2.10
2018-11-11T22:27:20.011Z,3.00
2018-11-11T22:29:48.055Z,2.47
2018-11-11T22:32:16.101Z,2.37
2018-11-11T22:34:44.157Z,4.10
2018-11-11T22:37:12.231Z,3.70
2018-11-11T22:39:40.329Z,2.30
2018-11-11T22:42:08.461Z,3.27
2018-11-11T22:44:36.514Z,2.60
2018-11-11T22:47:04.792Z,2.20
2018-11-11T22:49:32.883Z,2.47
2018-11-11T22:52:00.949Z,2.17
2018-11-11T22:54:29.002Z,2.60
2018-11-11T22:56:57.114Z,3.13
2018-11-11T22:59:25.194Z,2.03
2018-11-11T23:01:53.260Z,3.50
2018-11-11T23:04:21.333Z,2.80
2018-11-11T23:06:49.393Z,3.00
2018-11-11T23:09:17.481Z,2.97
2018-11-11T23:11:45.559Z,2.70
2018-11-11T23:14:13.663Z,2.10
2018-11-11T23:16:41.736Z,2.85
2018-11-11T23:19:09.875Z,2.73
2018-11-11T23:21:37.963Z,2.00
2018-11-11T23:24:06.474Z,2.77
2018-11-11T23:26:34.563Z,2.27
2018-11-11T23:29:02.608Z,2.15
2018-11-11T23:31:30.656Z,2.50
2018-11-11T23:33:58.712Z,2.40
2018-11-11T23:36:26.784Z,3.17
2018-11-11T23:38:55.596Z,2.83
2018-11-11T23:41:23.771Z,2.73
2018-11-11T23:43:51.905Z,2.23
2018-11-11T23:46:19.984Z,2.20
2018-11-11T23:48:48.053Z,2.33
2018-11-11T23:51:16.123Z,2.07
2018-11-11T23:53:44.213Z,2.27
2018-11-11T23:56:12.264Z,1.90
2018-11-11T23:58:40.363Z,1.93
